sensor_id;sensor_type;location;lat;lon;timestamp;P1;durP1;ratioP1;P2;durP2;ratioP2
71290;SDS011;59073;51.994;4.448;2023-02-11T00:00:20;5.69;;;4.14;;
71290;SDS011;59073;51.994;4.448;2023-02-11T00:02:45;5.95;;;4.23;;
71290;SDS011;59073;51.994;4.448;2023-02-11T00:05:11;5.50;;;4.00;;
71290;SDS011;59073;51.994;4.448;2023-02-11T00:07:36;5.29;;;4.01;;
71290;SDS011;59073;51.994;4.448;2023-02-11T00:10:02;4.88;;;3.72;;
71290;SDS011;59073;51.994;4.448;2023-02-11T00:12:28;5.90;;;4.39;;
71290;SDS011;59073;51.994;4.448;2023-02-11T00:14:54;5.37;;;3.99;;
71290;SDS011;59073;51.994;4.448;2023-02-11T00:17:20;4.78;;;3.66;;
71290;SDS011;59073;51.994;4.448;2023-02-11T00:19:49;4.79;;;3.70;;
71290;SDS011;59073;51.994;4.448;2023-02-11T00:22:16;5.42;;;4.20;;
71290;SDS011;59073;51.994;4.448;2023-02-11T00:24:42;5.02;;;3.90;;
71290;SDS011;59073;51.994;4.448;2023-02-11T00:27:07;5.26;;;4.06;;
71290;SDS011;59073;51.994;4.448;2023-02-11T00:29:32;6.25;;;4.70;;
71290;SDS011;59073;51.994;4.448;2023-02-11T00:31:58;5.49;;;4.20;;
71290;SDS011;59073;51.994;4.448;2023-02-11T00:34:29;4.70;;;3.65;;
71290;SDS011;59073;51.994;4.448;2023-02-11T00:36:55;5.74;;;4.33;;
71290;SDS011;59073;51.994;4.448;2023-02-11T00:39:21;5.37;;;4.11;;
71290;SDS011;59073;51.994;4.448;2023-02-11T00:41:46;5.23;;;4.06;;
71290;SDS011;59073;51.994;4.448;2023-02-11T00:44:11;5.68;;;4.45;;
71290;SDS011;59073;51.994;4.448;2023-02-11T00:46:37;5.95;;;4.51;;
71290;SDS011;59073;51.994;4.448;2023-02-11T00:49:02;5.28;;;4.11;;
71290;SDS011;59073;51.994;4.448;2023-02-11T00:51:28;5.36;;;4.19;;
71290;SDS011;59073;51.994;4.448;2023-02-11T00:53:53;5.01;;;3.85;;
71290;SDS011;59073;51.994;4.448;2023-02-11T00:56:19;4.34;;;3.46;;
71290;SDS011;59073;51.994;4.448;2023-02-11T00:58:45;4.73;;;3.90;;
71290;SDS011;59073;51.994;4.448;2023-02-11T01:01:11;4.32;;;3.61;;
71290;SDS011;59073;51.994;4.448;2023-02-11T01:03:37;5.20;;;4.23;;
71290;SDS011;59073;51.994;4.448;2023-02-11T01:06:03;5.81;;;4.60;;
71290;SDS011;59073;51.994;4.448;2023-02-11T01:08:30;5.94;;;4.59;;
71290;SDS011;59073;51.994;4.448;2023-02-11T01:10:56;5.66;;;4.34;;
71290;SDS011;59073;51.994;4.448;2023-02-11T01:13:24;5.44;;;4.09;;
71290;SDS011;59073;51.994;4.448;2023-02-11T01:15:50;5.45;;;4.14;;
71290;SDS011;59073;51.994;4.448;2023-02-11T01:18:16;5.04;;;3.96;;
71290;SDS011;59073;51.994;4.448;2023-02-11T01:20:41;4.33;;;3.48;;
71290;SDS011;59073;51.994;4.448;2023-02-11T01:23:07;5.33;;;4.23;;
71290;SDS011;59073;51.994;4.448;2023-02-11T01:25:32;4.96;;;3.90;;
71290;SDS011;59073;51.994;4.448;2023-02-11T01:27:58;5.32;;;4.16;;
71290;SDS011;59073;51.994;4.448;2023-02-11T01:30:23;5.47;;;4.23;;
71290;SDS011;59073;51.994;4.448;2023-02-11T01:32:49;5.52;;;4.18;;
71290;SDS011;59073;51.994;4.448;2023-02-11T01:35:14;5.33;;;4.20;;
71290;SDS011;59073;51.994;4.448;2023-02-11T01:37:40;4.62;;;3.86;;
71290;SDS011;59073;51.994;4.448;2023-02-11T01:40:07;4.79;;;3.93;;
71290;SDS011;59073;51.994;4.448;2023-02-11T01:42:37;5.25;;;4.25;;
71290;SDS011;59073;51.994;4.448;2023-02-11T01:45:41;5.32;;;4.36;;
71290;SDS011;59073;51.994;4.448;2023-02-11T01:48:28;5.10;;;4.18;;
71290;SDS011;59073;51.994;4.448;2023-02-11T01:51:04;5.59;;;4.54;;
71290;SDS011;59073;51.994;4.448;2023-02-11T01:53:35;5.42;;;4.32;;
71290;SDS011;59073;51.994;4.448;2023-02-11T01:56:21;4.98;;;4.04;;
71290;SDS011;59073;51.994;4.448;2023-02-11T01:59:17;4.45;;;3.71;;
71290;SDS011;59073;51.994;4.448;2023-02-11T02:01:52;5.43;;;4.50;;
71290;SDS011;59073;51.994;4.448;2023-02-11T02:04:22;4.82;;;4.03;;
71290;SDS011;59073;51.994;4.448;2023-02-11T02:07:00;5.19;;;4.40;;
71290;SDS011;59073;51.994;4.448;2023-02-11T02:09:35;4.29;;;3.69;;
71290;SDS011;59073;51.994;4.448;2023-02-11T02:12:08;5.73;;;4.87;;
71290;SDS011;59073;51.994;4.448;2023-02-11T02:14:38;5.20;;;4.43;;
71290;SDS011;59073;51.994;4.448;2023-02-11T02:17:05;4.52;;;3.84;;
71290;SDS011;59073;51.994;4.448;2023-02-11T02:19:43;5.32;;;4.61;;
71290;SDS011;59073;51.994;4.448;2023-02-11T02:22:32;5.12;;;4.46;;
71290;SDS011;59073;51.994;4.448;2023-02-11T02:33:44;5.32;;;4.56;;
71290;SDS011;59073;51.994;4.448;2023-02-11T02:36:27;4.70;;;4.14;;
71290;SDS011;59073;51.994;4.448;2023-02-11T02:39:23;4.67;;;4.09;;
71290;SDS011;59073;51.994;4.448;2023-02-11T02:41:55;4.50;;;3.90;;
71290;SDS011;59073;51.994;4.448;2023-02-11T02:44:22;4.95;;;4.26;;
71290;SDS011;59073;51.994;4.448;2023-02-11T02:46:48;5.17;;;4.37;;
71290;SDS011;59073;51.994;4.448;2023-02-11T02:49:14;5.38;;;4.59;;
71290;SDS011;59073;51.994;4.448;2023-02-11T02:52:02;5.39;;;4.62;;
71290;SDS011;59073;51.994;4.448;2023-02-11T03:00:34;5.35;;;4.66;;
71290;SDS011;59073;51.994;4.448;2023-02-11T03:03:21;4.78;;;4.15;;
71290;SDS011;59073;51.994;4.448;2023-02-11T03:06:16;5.09;;;4.43;;
71290;SDS011;59073;51.994;4.448;2023-02-11T03:08:51;5.58;;;4.77;;
71290;SDS011;59073;51.994;4.448;2023-02-11T03:11:26;5.45;;;4.77;;
71290;SDS011;59073;51.994;4.448;2023-02-11T03:13:53;4.78;;;4.19;;
71290;SDS011;59073;51.994;4.448;2023-02-11T03:16:24;5.74;;;4.88;;
71290;SDS011;59073;51.994;4.448;2023-02-11T03:18:55;5.64;;;4.77;;
71290;SDS011;59073;51.994;4.448;2023-02-11T03:21:29;5.27;;;4.63;;
71290;SDS011;59073;51.994;4.448;2023-02-11T03:24:00;5.31;;;4.70;;
71290;SDS011;59073;51.994;4.448;2023-02-11T03:26:37;4.90;;;4.42;;
71290;SDS011;59073;51.994;4.448;2023-02-11T03:29:21;5.20;;;4.74;;
71290;SDS011;59073;51.994;4.448;2023-02-11T03:32:01;5.15;;;4.61;;
71290;SDS011;59073;51.994;4.448;2023-02-11T03:34:45;5.33;;;4.79;;
71290;SDS011;59073;51.994;4.448;2023-02-11T03:40:03;5.38;;;4.88;;
71290;SDS011;59073;51.994;4.448;2023-02-11T03:42:41;5.09;;;4.65;;
71290;SDS011;59073;51.994;4.448;2023-02-11T03:45:13;4.88;;;4.50;;
71290;SDS011;59073;51.994;4.448;2023-02-11T03:47:52;5.07;;;4.74;;
71290;SDS011;59073;51.994;4.448;2023-02-11T03:50:47;5.53;;;5.07;;
71290;SDS011;59073;51.994;4.448;2023-02-11T03:53:14;5.48;;;5.05;;
71290;SDS011;59073;51.994;4.448;2023-02-11T03:55:42;5.00;;;4.68;;
71290;SDS011;59073;51.994;4.448;2023-02-11T03:58:11;5.14;;;4.80;;
71290;SDS011;59073;51.994;4.448;2023-02-11T04:00:38;5.34;;;4.97;;
71290;SDS011;59073;51.994;4.448;2023-02-11T04:03:06;5.08;;;4.79;;
71290;SDS011;59073;51.994;4.448;2023-02-11T04:05:32;5.93;;;5.42;;
71290;SDS011;59073;51.994;4.448;2023-02-11T04:07:58;5.41;;;4.94;;
71290;SDS011;59073;51.994;4.448;2023-02-11T04:10:24;5.63;;;5.17;;
71290;SDS011;59073;51.994;4.448;2023-02-11T04:12:49;5.62;;;5.26;;
71290;SDS011;59073;51.994;4.448;2023-02-11T04:15:15;5.78;;;5.46;;
71290;SDS011;59073;51.994;4.448;2023-02-11T04:17:40;5.90;;;5.47;;
71290;SDS011;59073;51.994;4.448;2023-02-11T04:20:07;6.00;;;5.54;;
71290;SDS011;59073;51.994;4.448;2023-02-11T04:22:33;6.26;;;5.84;;
71290;SDS011;59073;51.994;4.448;2023-02-11T04:24:59;5.54;;;5.31;;
71290;SDS011;59073;51.994;4.448;2023-02-11T04:27:24;5.73;;;5.39;;
71290;SDS011;59073;51.994;4.448;2023-02-11T04:29:49;6.03;;;5.64;;
71290;SDS011;59073;51.994;4.448;2023-02-11T04:32:15;5.92;;;5.65;;
71290;SDS011;59073;51.994;4.448;2023-02-11T04:34:40;5.71;;;5.45;;
71290;SDS011;59073;51.994;4.448;2023-02-11T04:37:06;5.94;;;5.70;;
71290;SDS011;59073;51.994;4.448;2023-02-11T04:39:32;6.30;;;5.93;;
71290;SDS011;59073;51.994;4.448;2023-02-11T04:41:58;6.60;;;6.21;;
71290;SDS011;59073;51.994;4.448;2023-02-11T04:44:23;6.07;;;5.72;;
71290;SDS011;59073;51.994;4.448;2023-02-11T04:46:49;6.59;;;6.16;;
71290;SDS011;59073;51.994;4.448;2023-02-11T04:49:14;6.89;;;6.51;;
71290;SDS011;59073;51.994;4.448;2023-02-11T04:51:42;6.71;;;6.33;;
71290;SDS011;59073;51.994;4.448;2023-02-11T04:54:09;7.03;;;6.70;;
71290;SDS011;59073;51.994;4.448;2023-02-11T04:56:35;7.02;;;6.76;;
71290;SDS011;59073;51.994;4.448;2023-02-11T04:59:01;7.21;;;6.97;;
71290;SDS011;59073;51.994;4.448;2023-02-11T05:01:28;8.09;;;7.68;;
71290;SDS011;59073;51.994;4.448;2023-02-11T05:03:53;8.92;;;8.60;;
71290;SDS011;59073;51.994;4.448;2023-02-11T05:06:19;9.24;;;8.88;;
71290;SDS011;59073;51.994;4.448;2023-02-11T05:08:44;8.95;;;8.69;;
71290;SDS011;59073;51.994;4.448;2023-02-11T05:11:14;8.70;;;8.57;;
71290;SDS011;59073;51.994;4.448;2023-02-11T05:13:41;8.97;;;8.81;;
71290;SDS011;59073;51.994;4.448;2023-02-11T05:16:07;9.25;;;9.04;;
71290;SDS011;59073;51.994;4.448;2023-02-11T05:18:32;9.58;;;9.42;;
71290;SDS011;59073;51.994;4.448;2023-02-11T05:20:58;9.63;;;9.52;;
71290;SDS011;59073;51.994;4.448;2023-02-11T05:23:23;8.70;;;8.62;;
71290;SDS011;59073;51.994;4.448;2023-02-11T05:25:49;9.52;;;9.44;;
71290;SDS011;59073;51.994;4.448;2023-02-11T05:28:14;8.87;;;8.74;;
71290;SDS011;59073;51.994;4.448;2023-02-11T05:30:40;9.15;;;8.78;;
71290;SDS011;59073;51.994;4.448;2023-02-11T05:33:05;9.16;;;8.86;;
71290;SDS011;59073;51.994;4.448;2023-02-11T05:35:31;8.57;;;8.40;;
71290;SDS011;59073;51.994;4.448;2023-02-11T05:37:56;9.89;;;9.61;;
71290;SDS011;59073;51.994;4.448;2023-02-11T05:40:22;9.47;;;9.19;;
71290;SDS011;59073;51.994;4.448;2023-02-11T05:42:47;9.44;;;9.22;;
71290;SDS011;59073;51.994;4.448;2023-02-11T05:45:12;9.38;;;9.13;;
71290;SDS011;59073;51.994;4.448;2023-02-11T05:47:38;9.43;;;9.17;;
71290;SDS011;59073;51.994;4.448;2023-02-11T05:50:03;9.25;;;8.96;;
71290;SDS011;59073;51.994;4.448;2023-02-11T05:52:29;9.10;;;8.85;;
71290;SDS011;59073;51.994;4.448;2023-02-11T05:54:55;8.97;;;8.74;;
71290;SDS011;59073;51.994;4.448;2023-02-11T05:57:20;8.93;;;8.74;;
71290;SDS011;59073;51.994;4.448;2023-02-11T05:59:46;9.43;;;9.31;;
71290;SDS011;59073;51.994;4.448;2023-02-11T06:02:11;9.74;;;9.56;;
71290;SDS011;59073;51.994;4.448;2023-02-11T06:04:37;9.72;;;9.51;;
71290;SDS011;59073;51.994;4.448;2023-02-11T06:07:02;9.84;;;9.69;;
71290;SDS011;59073;51.994;4.448;2023-02-11T06:09:28;9.51;;;9.43;;
71290;SDS011;59073;51.994;4.448;2023-02-11T06:11:54;9.77;;;9.69;;
71290;SDS011;59073;51.994;4.448;2023-02-11T06:14:19;9.83;;;9.71;;
71290;SDS011;59073;51.994;4.448;2023-02-11T06:16:45;10.77;;;10.64;;
71290;SDS011;59073;51.994;4.448;2023-02-11T06:19:11;11.85;;;11.71;;
71290;SDS011;59073;51.994;4.448;2023-02-11T06:21:37;11.51;;;11.34;;
71290;SDS011;59073;51.994;4.448;2023-02-11T06:24:03;12.03;;;11.88;;
71290;SDS011;59073;51.994;4.448;2023-02-11T06:26:30;11.60;;;11.45;;
71290;SDS011;59073;51.994;4.448;2023-02-11T06:28:55;11.77;;;11.60;;
71290;SDS011;59073;51.994;4.448;2023-02-11T06:31:24;11.83;;;11.68;;
71290;SDS011;59073;51.994;4.448;2023-02-11T06:33:49;11.58;;;11.46;;
71290;SDS011;59073;51.994;4.448;2023-02-11T06:36:16;10.48;;;10.29;;
71290;SDS011;59073;51.994;4.448;2023-02-11T06:38:44;10.62;;;10.46;;
71290;SDS011;59073;51.994;4.448;2023-02-11T06:41:11;10.35;;;10.25;;
71290;SDS011;59073;51.994;4.448;2023-02-11T06:43:38;10.35;;;10.26;;
71290;SDS011;59073;51.994;4.448;2023-02-11T06:46:04;10.12;;;10.04;;
71290;SDS011;59073;51.994;4.448;2023-02-11T06:48:30;10.09;;;9.97;;
71290;SDS011;59073;51.994;4.448;2023-02-11T06:50:56;9.98;;;9.86;;
71290;SDS011;59073;51.994;4.448;2023-02-11T06:53:25;10.15;;;10.09;;
71290;SDS011;59073;51.994;4.448;2023-02-11T06:55:50;10.31;;;10.18;;
71290;SDS011;59073;51.994;4.448;2023-02-11T06:58:15;10.95;;;10.83;;
71290;SDS011;59073;51.994;4.448;2023-02-11T07:00:41;11.28;;;11.19;;
71290;SDS011;59073;51.994;4.448;2023-02-11T07:03:06;10.88;;;10.78;;
71290;SDS011;59073;51.994;4.448;2023-02-11T07:05:32;11.02;;;10.88;;
71290;SDS011;59073;51.994;4.448;2023-02-11T07:07:58;11.70;;;11.55;;
71290;SDS011;59073;51.994;4.448;2023-02-11T07:10:24;11.32;;;11.23;;
71290;SDS011;59073;51.994;4.448;2023-02-11T07:12:49;11.00;;;10.77;;
71290;SDS011;59073;51.994;4.448;2023-02-11T07:15:14;11.33;;;11.22;;
71290;SDS011;59073;51.994;4.448;2023-02-11T07:17:40;11.25;;;11.17;;
71290;SDS011;59073;51.994;4.448;2023-02-11T07:20:05;11.04;;;10.95;;
71290;SDS011;59073;51.994;4.448;2023-02-11T07:22:32;11.40;;;11.30;;
71290;SDS011;59073;51.994;4.448;2023-02-11T07:24:58;10.29;;;10.23;;
71290;SDS011;59073;51.994;4.448;2023-02-11T07:27:23;10.47;;;10.35;;
71290;SDS011;59073;51.994;4.448;2023-02-11T07:29:57;11.00;;;10.85;;
71290;SDS011;59073;51.994;4.448;2023-02-11T07:32:23;11.83;;;11.70;;
71290;SDS011;59073;51.994;4.448;2023-02-11T07:34:48;11.98;;;11.85;;
71290;SDS011;59073;51.994;4.448;2023-02-11T07:37:14;11.94;;;11.83;;
71290;SDS011;59073;51.994;4.448;2023-02-11T07:39:40;11.57;;;11.40;;
71290;SDS011;59073;51.994;4.448;2023-02-11T07:42:16;11.24;;;11.13;;
71290;SDS011;59073;51.994;4.448;2023-02-11T07:44:41;10.96;;;10.87;;
71290;SDS011;59073;51.994;4.448;2023-02-11T07:47:06;9.33;;;9.30;;
71290;SDS011;59073;51.994;4.448;2023-02-11T07:49:32;8.56;;;8.50;;
71290;SDS011;59073;51.994;4.448;2023-02-11T07:51:57;9.08;;;9.06;;
71290;SDS011;59073;51.994;4.448;2023-02-11T07:54:23;10.28;;;10.27;;
71290;SDS011;59073;51.994;4.448;2023-02-11T07:56:48;10.02;;;9.94;;
71290;SDS011;59073;51.994;4.448;2023-02-11T07:59:14;10.40;;;10.28;;
71290;SDS011;59073;51.994;4.448;2023-02-11T08:01:39;9.97;;;9.89;;
71290;SDS011;59073;51.994;4.448;2023-02-11T08:04:05;9.99;;;9.96;;
71290;SDS011;59073;51.994;4.448;2023-02-11T08:06:31;10.04;;;9.98;;
71290;SDS011;59073;51.994;4.448;2023-02-11T08:09:08;9.89;;;9.77;;
71290;SDS011;59073;51.994;4.448;2023-02-11T08:11:40;10.27;;;10.14;;
71290;SDS011;59073;51.994;4.448;2023-02-11T08:14:05;10.86;;;10.70;;
71290;SDS011;59073;51.994;4.448;2023-02-11T08:16:31;11.63;;;11.51;;
71290;SDS011;59073;51.994;4.448;2023-02-11T08:19:00;11.79;;;11.68;;
71290;SDS011;59073;51.994;4.448;2023-02-11T08:21:28;12.21;;;12.12;;
71290;SDS011;59073;51.994;4.448;2023-02-11T08:23:54;12.71;;;12.65;;
71290;SDS011;59073;51.994;4.448;2023-02-11T08:26:21;12.30;;;12.26;;
71290;SDS011;59073;51.994;4.448;2023-02-11T08:28:50;12.75;;;12.67;;
71290;SDS011;59073;51.994;4.448;2023-02-11T08:31:18;12.92;;;12.83;;
71290;SDS011;59073;51.994;4.448;2023-02-11T08:33:46;12.55;;;12.42;;
71290;SDS011;59073;51.994;4.448;2023-02-11T08:36:13;11.93;;;11.84;;
71290;SDS011;59073;51.994;4.448;2023-02-11T08:38:40;13.00;;;12.92;;
71290;SDS011;59073;51.994;4.448;2023-02-11T08:41:08;12.97;;;12.79;;
71290;SDS011;59073;51.994;4.448;2023-02-11T08:43:34;12.23;;;12.12;;
71290;SDS011;59073;51.994;4.448;2023-02-11T08:46:00;12.30;;;12.26;;
71290;SDS011;59073;51.994;4.448;2023-02-11T08:48:26;11.50;;;11.40;;
71290;SDS011;59073;51.994;4.448;2023-02-11T08:50:53;11.64;;;11.60;;
71290;SDS011;59073;51.994;4.448;2023-02-11T08:53:20;11.19;;;11.12;;
71290;SDS011;59073;51.994;4.448;2023-02-11T08:55:49;10.91;;;10.85;;
71290;SDS011;59073;51.994;4.448;2023-02-11T08:58:15;10.51;;;10.46;;
71290;SDS011;59073;51.994;4.448;2023-02-11T09:00:41;10.39;;;10.31;;
71290;SDS011;59073;51.994;4.448;2023-02-11T09:03:09;10.73;;;10.61;;
71290;SDS011;59073;51.994;4.448;2023-02-11T09:05:42;10.16;;;10.07;;
71290;SDS011;59073;51.994;4.448;2023-02-11T09:08:10;9.87;;;9.74;;
71290;SDS011;59073;51.994;4.448;2023-02-11T09:10:36;9.75;;;9.72;;
71290;SDS011;59073;51.994;4.448;2023-02-11T09:13:03;9.11;;;9.09;;
71290;SDS011;59073;51.994;4.448;2023-02-11T09:15:29;8.77;;;8.75;;
71290;SDS011;59073;51.994;4.448;2023-02-11T09:17:55;9.62;;;9.61;;
71290;SDS011;59073;51.994;4.448;2023-02-11T09:20:20;8.68;;;8.67;;
71290;SDS011;59073;51.994;4.448;2023-02-11T09:22:46;8.94;;;8.85;;
71290;SDS011;59073;51.994;4.448;2023-02-11T09:25:11;8.74;;;8.67;;
71290;SDS011;59073;51.994;4.448;2023-02-11T09:27:37;8.86;;;8.82;;
71290;SDS011;59073;51.994;4.448;2023-02-11T09:30:02;8.35;;;8.30;;
71290;SDS011;59073;51.994;4.448;2023-02-11T09:32:28;8.44;;;8.37;;
71290;SDS011;59073;51.994;4.448;2023-02-11T09:34:54;8.27;;;8.22;;
71290;SDS011;59073;51.994;4.448;2023-02-11T09:37:19;8.04;;;8.03;;
71290;SDS011;59073;51.994;4.448;2023-02-11T09:39:45;8.70;;;8.69;;
71290;SDS011;59073;51.994;4.448;2023-02-11T09:45:11;7.80;;;7.80;;
71290;SDS011;59073;51.994;4.448;2023-02-11T09:47:44;7.87;;;7.87;;
71290;SDS011;59073;51.994;4.448;2023-02-11T09:50:30;7.46;;;7.38;;
71290;SDS011;59073;51.994;4.448;2023-02-11T09:53:03;7.52;;;7.45;;
71290;SDS011;59073;51.994;4.448;2023-02-11T09:55:42;7.60;;;7.58;;
71290;SDS011;59073;51.994;4.448;2023-02-11T09:58:15;7.47;;;7.47;;
71290;SDS011;59073;51.994;4.448;2023-02-11T10:00:47;7.28;;;7.28;;
71290;SDS011;59073;51.994;4.448;2023-02-11T10:04:03;7.49;;;7.39;;
71290;SDS011;59073;51.994;4.448;2023-02-11T10:09:11;6.92;;;6.92;;
71290;SDS011;59073;51.994;4.448;2023-02-11T10:11:59;6.89;;;6.86;;
71290;SDS011;59073;51.994;4.448;2023-02-11T10:14:55;6.72;;;6.71;;
71290;SDS011;59073;51.994;4.448;2023-02-11T10:20:24;7.10;;;7.10;;
71290;SDS011;59073;51.994;4.448;2023-02-11T10:22:59;6.88;;;6.88;;
71290;SDS011;59073;51.994;4.448;2023-02-11T10:25:36;7.01;;;7.01;;
71290;SDS011;59073;51.994;4.448;2023-02-11T10:28:13;6.79;;;6.77;;
71290;SDS011;59073;51.994;4.448;2023-02-11T10:33:46;7.20;;;7.19;;
71290;SDS011;59073;51.994;4.448;2023-02-11T10:36:27;7.68;;;7.68;;
71290;SDS011;59073;51.994;4.448;2023-02-11T10:38:57;7.67;;;7.67;;
71290;SDS011;59073;51.994;4.448;2023-02-11T10:41:35;7.84;;;7.84;;
71290;SDS011;59073;51.994;4.448;2023-02-11T10:44:05;8.10;;;8.03;;
71290;SDS011;59073;51.994;4.448;2023-02-11T10:46:32;8.10;;;8.00;;
71290;SDS011;59073;51.994;4.448;2023-02-11T10:49:02;8.18;;;8.17;;
71290;SDS011;59073;51.994;4.448;2023-02-11T10:51:28;8.39;;;8.37;;
71290;SDS011;59073;51.994;4.448;2023-02-11T10:56:27;8.33;;;8.25;;
71290;SDS011;59073;51.994;4.448;2023-02-11T11:04:34;8.32;;;8.29;;
71290;SDS011;59073;51.994;4.448;2023-02-11T11:07:09;8.28;;;8.22;;
71290;SDS011;59073;51.994;4.448;2023-02-11T11:09:59;7.95;;;7.85;;
71290;SDS011;59073;51.994;4.448;2023-02-11T11:12:50;8.02;;;8.02;;
71290;SDS011;59073;51.994;4.448;2023-02-11T11:15:17;8.51;;;8.48;;
71290;SDS011;59073;51.994;4.448;2023-02-11T11:17:46;9.18;;;9.03;;
71290;SDS011;59073;51.994;4.448;2023-02-11T11:20:22;7.86;;;7.81;;
71290;SDS011;59073;51.994;4.448;2023-02-11T11:23:06;8.16;;;8.16;;
71290;SDS011;59073;51.994;4.448;2023-02-11T11:25:40;8.06;;;8.06;;
71290;SDS011;59073;51.994;4.448;2023-02-11T11:28:17;8.13;;;8.13;;
71290;SDS011;59073;51.994;4.448;2023-02-11T11:30:47;8.43;;;8.43;;
71290;SDS011;59073;51.994;4.448;2023-02-11T11:33:21;8.25;;;8.22;;
71290;SDS011;59073;51.994;4.448;2023-02-11T11:35:59;8.45;;;8.44;;
71290;SDS011;59073;51.994;4.448;2023-02-11T11:38:36;8.41;;;8.41;;
71290;SDS011;59073;51.994;4.448;2023-02-11T11:41:15;8.80;;;8.74;;
71290;SDS011;59073;51.994;4.448;2023-02-11T11:44:11;8.51;;;8.46;;
71290;SDS011;59073;51.994;4.448;2023-02-11T11:46:48;8.22;;;8.15;;
71290;SDS011;59073;51.994;4.448;2023-02-11T11:49:57;8.52;;;8.46;;
71290;SDS011;59073;51.994;4.448;2023-02-11T11:55:34;8.45;;;8.39;;
71290;SDS011;59073;51.994;4.448;2023-02-11T11:58:08;8.95;;;8.88;;
71290;SDS011;59073;51.994;4.448;2023-02-11T12:03:56;8.53;;;8.53;;
71290;SDS011;59073;51.994;4.448;2023-02-11T12:06:52;8.72;;;8.66;;
71290;SDS011;59073;51.994;4.448;2023-02-11T12:17:56;8.47;;;8.43;;
71290;SDS011;59073;51.994;4.448;2023-02-11T12:20:59;8.56;;;8.45;;
71290;SDS011;59073;51.994;4.448;2023-02-11T12:23:54;8.26;;;8.16;;
71290;SDS011;59073;51.994;4.448;2023-02-11T12:26:41;7.85;;;7.79;;
71290;SDS011;59073;51.994;4.448;2023-02-11T12:29:23;8.47;;;8.38;;
71290;SDS011;59073;51.994;4.448;2023-02-11T12:32:20;7.79;;;7.78;;
71290;SDS011;59073;51.994;4.448;2023-02-11T12:35:05;7.31;;;7.30;;
71290;SDS011;59073;51.994;4.448;2023-02-11T12:37:46;7.67;;;7.64;;
71290;SDS011;59073;51.994;4.448;2023-02-11T12:40:50;7.82;;;7.77;;
71290;SDS011;59073;51.994;4.448;2023-02-11T12:43:24;7.45;;;7.39;;
71290;SDS011;59073;51.994;4.448;2023-02-11T12:52:03;7.19;;;7.19;;
71290;SDS011;59073;51.994;4.448;2023-02-11T12:54:39;6.87;;;6.85;;
71290;SDS011;59073;51.994;4.448;2023-02-11T12:57:28;6.64;;;6.63;;
71290;SDS011;59073;51.994;4.448;2023-02-11T13:05:21;6.19;;;6.19;;
71290;SDS011;59073;51.994;4.448;2023-02-11T13:07:51;6.52;;;6.52;;
71290;SDS011;59073;51.994;4.448;2023-02-11T13:10:35;5.96;;;5.96;;
71290;SDS011;59073;51.994;4.448;2023-02-11T13:13:18;6.00;;;6.00;;
71290;SDS011;59073;51.994;4.448;2023-02-11T13:15:50;5.80;;;5.78;;
71290;SDS011;59073;51.994;4.448;2023-02-11T13:18:25;5.61;;;5.53;;
71290;SDS011;59073;51.994;4.448;2023-02-11T13:21:16;5.61;;;5.58;;
71290;SDS011;59073;51.994;4.448;2023-02-11T13:23:59;5.43;;;5.43;;
71290;SDS011;59073;51.994;4.448;2023-02-11T13:26:57;5.22;;;5.22;;
71290;SDS011;59073;51.994;4.448;2023-02-11T13:32:08;5.57;;;5.54;;
71290;SDS011;59073;51.994;4.448;2023-02-11T13:37:05;5.02;;;5.01;;
71290;SDS011;59073;51.994;4.448;2023-02-11T13:42:58;4.56;;;4.56;;
71290;SDS011;59073;51.994;4.448;2023-02-11T13:45:45;4.39;;;4.39;;
71290;SDS011;59073;51.994;4.448;2023-02-11T13:50:53;4.34;;;4.34;;
71290;SDS011;59073;51.994;4.448;2023-02-11T13:53:23;4.71;;;4.71;;
71290;SDS011;59073;51.994;4.448;2023-02-11T13:55:50;4.30;;;4.30;;
71290;SDS011;59073;51.994;4.448;2023-02-11T14:00:54;4.36;;;4.34;;
71290;SDS011;59073;51.994;4.448;2023-02-11T14:03:25;4.49;;;4.49;;
71290;SDS011;59073;51.994;4.448;2023-02-11T14:06:21;4.35;;;4.34;;
71290;SDS011;59073;51.994;4.448;2023-02-11T14:14:14;3.87;;;3.87;;
71290;SDS011;59073;51.994;4.448;2023-02-11T14:19:40;3.85;;;3.84;;
71290;SDS011;59073;51.994;4.448;2023-02-11T14:22:12;4.17;;;4.16;;
71290;SDS011;59073;51.994;4.448;2023-02-11T14:24:50;4.11;;;4.11;;
71290;SDS011;59073;51.994;4.448;2023-02-11T14:32:53;4.07;;;4.06;;
71290;SDS011;59073;51.994;4.448;2023-02-11T14:41:39;3.99;;;3.99;;
71290;SDS011;59073;51.994;4.448;2023-02-11T14:44:13;4.10;;;4.10;;
71290;SDS011;59073;51.994;4.448;2023-02-11T14:46:49;3.89;;;3.89;;
71290;SDS011;59073;51.994;4.448;2023-02-11T14:49:25;4.32;;;4.32;;
71290;SDS011;59073;51.994;4.448;2023-02-11T14:51:56;4.10;;;4.10;;
71290;SDS011;59073;51.994;4.448;2023-02-11T14:54:30;3.89;;;3.89;;
71290;SDS011;59073;51.994;4.448;2023-02-11T14:57:06;3.47;;;3.47;;
71290;SDS011;59073;51.994;4.448;2023-02-11T14:59:38;4.13;;;4.13;;
71290;SDS011;59073;51.994;4.448;2023-02-11T15:02:20;3.45;;;3.45;;
71290;SDS011;59073;51.994;4.448;2023-02-11T15:04:47;3.39;;;3.39;;
71290;SDS011;59073;51.994;4.448;2023-02-11T15:07:13;3.98;;;3.98;;
71290;SDS011;59073;51.994;4.448;2023-02-11T15:09:40;3.79;;;3.77;;
71290;SDS011;59073;51.994;4.448;2023-02-11T15:12:28;3.88;;;3.87;;
71290;SDS011;59073;51.994;4.448;2023-02-11T15:14:54;4.01;;;4.00;;
71290;SDS011;59073;51.994;4.448;2023-02-11T15:17:24;4.05;;;4.05;;
71290;SDS011;59073;51.994;4.448;2023-02-11T15:19:53;4.14;;;4.14;;
71290;SDS011;59073;51.994;4.448;2023-02-11T15:22:24;3.72;;;3.71;;
71290;SDS011;59073;51.994;4.448;2023-02-11T15:24:57;3.99;;;3.98;;
71290;SDS011;59073;51.994;4.448;2023-02-11T15:27:52;4.23;;;4.22;;
71290;SDS011;59073;51.994;4.448;2023-02-11T15:32:46;4.23;;;4.21;;
71290;SDS011;59073;51.994;4.448;2023-02-11T15:35:16;4.00;;;3.99;;
71290;SDS011;59073;51.994;4.448;2023-02-11T15:37:42;4.05;;;4.05;;
71290;SDS011;59073;51.994;4.448;2023-02-11T15:40:10;3.84;;;3.84;;
71290;SDS011;59073;51.994;4.448;2023-02-11T15:42:51;3.70;;;3.70;;
71290;SDS011;59073;51.994;4.448;2023-02-11T15:45:31;3.67;;;3.67;;
71290;SDS011;59073;51.994;4.448;2023-02-11T15:48:08;3.90;;;3.90;;
71290;SDS011;59073;51.994;4.448;2023-02-11T15:50:39;3.61;;;3.61;;
71290;SDS011;59073;51.994;4.448;2023-02-11T15:55:51;3.66;;;3.66;;
71290;SDS011;59073;51.994;4.448;2023-02-11T15:58:36;3.61;;;3.61;;
71290;SDS011;59073;51.994;4.448;2023-02-11T16:01:04;3.69;;;3.69;;
71290;SDS011;59073;51.994;4.448;2023-02-11T16:03:32;3.76;;;3.76;;
71290;SDS011;59073;51.994;4.448;2023-02-11T16:06:19;3.71;;;3.70;;
71290;SDS011;59073;51.994;4.448;2023-02-11T16:08:58;3.79;;;3.78;;
71290;SDS011;59073;51.994;4.448;2023-02-11T16:17:20;3.53;;;3.53;;
71290;SDS011;59073;51.994;4.448;2023-02-11T16:19:44;3.80;;;3.80;;
71290;SDS011;59073;51.994;4.448;2023-02-11T16:22:17;3.83;;;3.83;;
71290;SDS011;59073;51.994;4.448;2023-02-11T16:24:47;3.77;;;3.77;;
71290;SDS011;59073;51.994;4.448;2023-02-11T16:27:22;4.04;;;4.04;;
71290;SDS011;59073;51.994;4.448;2023-02-11T16:29:54;4.04;;;4.03;;
71290;SDS011;59073;51.994;4.448;2023-02-11T16:32:26;4.11;;;4.11;;
71290;SDS011;59073;51.994;4.448;2023-02-11T16:34:54;3.74;;;3.74;;
71290;SDS011;59073;51.994;4.448;2023-02-11T16:37:25;3.80;;;3.80;;
71290;SDS011;59073;51.994;4.448;2023-02-11T16:39:57;3.91;;;3.91;;
71290;SDS011;59073;51.994;4.448;2023-02-11T16:42:23;4.06;;;4.06;;
71290;SDS011;59073;51.994;4.448;2023-02-11T16:44:48;4.12;;;4.12;;
71290;SDS011;59073;51.994;4.448;2023-02-11T16:47:19;4.01;;;4.01;;
71290;SDS011;59073;51.994;4.448;2023-02-11T16:49:48;4.14;;;4.13;;
71290;SDS011;59073;51.994;4.448;2023-02-11T16:52:15;4.43;;;4.43;;
71290;SDS011;59073;51.994;4.448;2023-02-11T16:54:42;4.04;;;4.04;;